Terminal Aerodrome Forecast
Issued by NWS

Home | Current Version | Previous Version | Text Only | Print | Product List | Glossary On
Versions: 1 2 3 4 5 6 7 8 9 10 11 12 13
520
FTUS42 TJSJ 241729
TAFNCM
TAF
TNCM 241729Z 2418/2518 13012KT P6SM VCSH SCT022 BKN035
     FM242300 10009KT P6SM FEW019 SCT050
     FM250300 08004KT P6SM VCSH SCT018 SCT035
     FM251400 11011KT P6SM SCT022=

USA.gov is the U.S. government's official web portal to all federal, state and local government web resources and services.